sensor_id;sensor_type;location;lat;lon;timestamp;P1;durP1;ratioP1;P2;durP2;ratioP2
29044;SDS011;16133;49.486;12.176;2023-03-03T00:00:26;53.13;;;21.20;;
29044;SDS011;16133;49.486;12.176;2023-03-03T00:02:51;47.63;;;20.67;;
29044;SDS011;16133;49.486;12.176;2023-03-03T00:05:17;47.63;;;20.70;;
29044;SDS011;16133;49.486;12.176;2023-03-03T00:07:45;45.72;;;21.13;;
29044;SDS011;16133;49.486;12.176;2023-03-03T00:10:12;53.47;;;22.25;;
29044;SDS011;16133;49.486;12.176;2023-03-03T00:12:44;50.15;;;20.38;;
29044;SDS011;16133;49.486;12.176;2023-03-03T00:15:13;48.47;;;20.77;;
29044;SDS011;16133;49.486;12.176;2023-03-03T00:17:40;48.05;;;19.30;;
29044;SDS011;16133;49.486;12.176;2023-03-03T00:25:49;44.30;;;19.33;;
29044;SDS011;16133;49.486;12.176;2023-03-03T00:28:30;42.85;;;19.00;;
29044;SDS011;16133;49.486;12.176;2023-03-03T00:31:10;43.53;;;18.15;;
29044;SDS011;16133;49.486;12.176;2023-03-03T00:33:49;46.20;;;19.45;;
29044;SDS011;16133;49.486;12.176;2023-03-03T00:36:30;48.72;;;19.92;;
29044;SDS011;16133;49.486;12.176;2023-03-03T00:39:17;45.58;;;19.40;;
29044;SDS011;16133;49.486;12.176;2023-03-03T00:41:43;48.90;;;20.33;;
29044;SDS011;16133;49.486;12.176;2023-03-03T00:49:53;45.65;;;19.40;;
29044;SDS011;16133;49.486;12.176;2023-03-03T00:52:20;42.55;;;19.42;;
29044;SDS011;16133;49.486;12.176;2023-03-03T00:54:47;50.15;;;20.67;;
29044;SDS011;16133;49.486;12.176;2023-03-03T00:57:12;40.03;;;17.67;;
29044;SDS011;16133;49.486;12.176;2023-03-03T01:02:07;46.45;;;19.20;;
29044;SDS011;16133;49.486;12.176;2023-03-03T01:04:32;47.97;;;18.85;;
29044;SDS011;16133;49.486;12.176;2023-03-03T01:06:58;45.15;;;20.42;;
29044;SDS011;16133;49.486;12.176;2023-03-03T01:09:23;50.30;;;20.88;;
29044;SDS011;16133;49.486;12.176;2023-03-03T01:11:49;46.60;;;18.85;;
29044;SDS011;16133;49.486;12.176;2023-03-03T01:14:15;46.92;;;18.25;;
29044;SDS011;16133;49.486;12.176;2023-03-03T01:16:41;51.60;;;20.17;;
29044;SDS011;16133;49.486;12.176;2023-03-03T01:19:06;52.88;;;19.33;;
29044;SDS011;16133;49.486;12.176;2023-03-03T01:21:32;44.35;;;19.33;;
29044;SDS011;16133;49.486;12.176;2023-03-03T01:23:57;48.65;;;19.88;;
29044;SDS011;16133;49.486;12.176;2023-03-03T01:26:23;48.33;;;20.15;;
29044;SDS011;16133;49.486;12.176;2023-03-03T01:28:48;53.05;;;20.58;;
29044;SDS011;16133;49.486;12.176;2023-03-03T01:31:14;55.25;;;23.05;;
29044;SDS011;16133;49.486;12.176;2023-03-03T01:33:39;44.13;;;18.90;;
29044;SDS011;16133;49.486;12.176;2023-03-03T01:36:04;48.67;;;20.88;;
29044;SDS011;16133;49.486;12.176;2023-03-03T01:38:30;45.28;;;19.80;;
29044;SDS011;16133;49.486;12.176;2023-03-03T01:40:59;43.40;;;19.75;;
29044;SDS011;16133;49.486;12.176;2023-03-03T01:43:28;50.30;;;20.40;;
29044;SDS011;16133;49.486;12.176;2023-03-03T01:48:25;55.13;;;20.90;;
29044;SDS011;16133;49.486;12.176;2023-03-03T01:50:55;51.15;;;20.15;;
29044;SDS011;16133;49.486;12.176;2023-03-03T01:53:38;47.38;;;19.83;;
29044;SDS011;16133;49.486;12.176;2023-03-03T01:56:05;40.38;;;18.08;;
29044;SDS011;16133;49.486;12.176;2023-03-03T01:58:36;42.50;;;19.48;;
29044;SDS011;16133;49.486;12.176;2023-03-03T02:01:06;47.05;;;18.48;;
29044;SDS011;16133;49.486;12.176;2023-03-03T02:03:37;44.30;;;18.42;;
29044;SDS011;16133;49.486;12.176;2023-03-03T02:06:05;44.10;;;18.17;;
29044;SDS011;16133;49.486;12.176;2023-03-03T02:08:35;46.88;;;19.80;;
29044;SDS011;16133;49.486;12.176;2023-03-03T02:11:06;44.75;;;19.23;;
29044;SDS011;16133;49.486;12.176;2023-03-03T02:13:33;40.42;;;17.23;;
29044;SDS011;16133;49.486;12.176;2023-03-03T02:15:58;57.20;;;20.17;;
29044;SDS011;16133;49.486;12.176;2023-03-03T02:18:24;53.58;;;21.90;;
29044;SDS011;16133;49.486;12.176;2023-03-03T02:21:08;50.55;;;20.63;;
29044;SDS011;16133;49.486;12.176;2023-03-03T02:26:21;51.30;;;20.05;;
29044;SDS011;16133;49.486;12.176;2023-03-03T02:28:49;45.83;;;19.10;;
29044;SDS011;16133;49.486;12.176;2023-03-03T02:31:17;47.45;;;19.90;;
29044;SDS011;16133;49.486;12.176;2023-03-03T02:33:48;41.55;;;17.15;;
29044;SDS011;16133;49.486;12.176;2023-03-03T02:36:16;44.15;;;18.88;;
29044;SDS011;16133;49.486;12.176;2023-03-03T02:43:58;46.50;;;19.35;;
29044;SDS011;16133;49.486;12.176;2023-03-03T02:46:27;47.47;;;20.67;;
29044;SDS011;16133;49.486;12.176;2023-03-03T02:48:53;47.22;;;19.08;;
29044;SDS011;16133;49.486;12.176;2023-03-03T02:51:18;47.97;;;19.65;;
29044;SDS011;16133;49.486;12.176;2023-03-03T02:53:44;45.63;;;18.85;;
29044;SDS011;16133;49.486;12.176;2023-03-03T02:56:09;57.63;;;22.00;;
29044;SDS011;16133;49.486;12.176;2023-03-03T02:58:35;44.47;;;18.05;;
29044;SDS011;16133;49.486;12.176;2023-03-03T03:01:02;49.50;;;19.42;;
29044;SDS011;16133;49.486;12.176;2023-03-03T03:03:27;43.83;;;19.48;;
29044;SDS011;16133;49.486;12.176;2023-03-03T03:05:53;47.53;;;18.85;;
29044;SDS011;16133;49.486;12.176;2023-03-03T03:08:18;49.00;;;19.13;;
29044;SDS011;16133;49.486;12.176;2023-03-03T03:10:43;54.40;;;21.83;;
29044;SDS011;16133;49.486;12.176;2023-03-03T03:13:09;49.40;;;20.98;;
29044;SDS011;16133;49.486;12.176;2023-03-03T03:15:34;48.78;;;20.13;;
29044;SDS011;16133;49.486;12.176;2023-03-03T03:18:00;45.17;;;20.42;;
29044;SDS011;16133;49.486;12.176;2023-03-03T03:20:25;49.83;;;20.63;;
29044;SDS011;16133;49.486;12.176;2023-03-03T03:22:51;58.20;;;20.63;;
29044;SDS011;16133;49.486;12.176;2023-03-03T03:25:16;50.88;;;20.50;;
29044;SDS011;16133;49.486;12.176;2023-03-03T03:27:41;51.92;;;21.33;;
29044;SDS011;16133;49.486;12.176;2023-03-03T03:30:07;51.33;;;20.52;;
29044;SDS011;16133;49.486;12.176;2023-03-03T03:32:33;60.15;;;21.45;;
29044;SDS011;16133;49.486;12.176;2023-03-03T03:34:58;56.13;;;21.85;;
29044;SDS011;16133;49.486;12.176;2023-03-03T03:37:24;57.22;;;20.83;;
29044;SDS011;16133;49.486;12.176;2023-03-03T03:39:49;49.17;;;19.70;;
29044;SDS011;16133;49.486;12.176;2023-03-03T03:42:14;46.85;;;20.50;;
29044;SDS011;16133;49.486;12.176;2023-03-03T03:44:40;43.05;;;19.80;;
29044;SDS011;16133;49.486;12.176;2023-03-03T03:47:05;51.15;;;20.92;;
29044;SDS011;16133;49.486;12.176;2023-03-03T03:49:30;46.80;;;18.85;;
29044;SDS011;16133;49.486;12.176;2023-03-03T03:51:56;49.75;;;20.65;;
29044;SDS011;16133;49.486;12.176;2023-03-03T03:54:21;52.70;;;20.80;;
29044;SDS011;16133;49.486;12.176;2023-03-03T03:56:46;47.83;;;19.33;;
29044;SDS011;16133;49.486;12.176;2023-03-03T03:59:12;50.25;;;20.10;;
29044;SDS011;16133;49.486;12.176;2023-03-03T04:01:37;49.60;;;20.30;;
29044;SDS011;16133;49.486;12.176;2023-03-03T04:04:03;49.28;;;20.60;;
29044;SDS011;16133;49.486;12.176;2023-03-03T04:06:29;49.47;;;19.63;;
29044;SDS011;16133;49.486;12.176;2023-03-03T04:08:54;42.40;;;19.38;;
29044;SDS011;16133;49.486;12.176;2023-03-03T04:11:20;41.58;;;17.52;;
29044;SDS011;16133;49.486;12.176;2023-03-03T04:13:45;46.70;;;19.80;;
29044;SDS011;16133;49.486;12.176;2023-03-03T04:16:10;45.65;;;19.17;;
29044;SDS011;16133;49.486;12.176;2023-03-03T04:18:36;51.67;;;21.60;;
29044;SDS011;16133;49.486;12.176;2023-03-03T04:21:01;49.55;;;20.30;;
29044;SDS011;16133;49.486;12.176;2023-03-03T04:23:26;47.90;;;20.45;;
29044;SDS011;16133;49.486;12.176;2023-03-03T04:25:52;46.80;;;20.20;;
29044;SDS011;16133;49.486;12.176;2023-03-03T04:28:17;57.55;;;22.15;;
29044;SDS011;16133;49.486;12.176;2023-03-03T04:30:43;51.13;;;21.05;;
29044;SDS011;16133;49.486;12.176;2023-03-03T04:33:08;55.08;;;22.27;;
29044;SDS011;16133;49.486;12.176;2023-03-03T04:35:34;51.30;;;21.15;;
29044;SDS011;16133;49.486;12.176;2023-03-03T04:37:59;57.45;;;21.20;;
29044;SDS011;16133;49.486;12.176;2023-03-03T04:40:25;49.67;;;22.00;;
29044;SDS011;16133;49.486;12.176;2023-03-03T04:42:51;59.85;;;24.02;;
29044;SDS011;16133;49.486;12.176;2023-03-03T04:45:16;53.15;;;21.08;;
29044;SDS011;16133;49.486;12.176;2023-03-03T04:47:41;55.03;;;21.67;;
29044;SDS011;16133;49.486;12.176;2023-03-03T04:50:08;57.90;;;22.25;;
29044;SDS011;16133;49.486;12.176;2023-03-03T04:52:34;53.92;;;21.08;;
29044;SDS011;16133;49.486;12.176;2023-03-03T04:54:59;55.53;;;21.73;;
29044;SDS011;16133;49.486;12.176;2023-03-03T04:57:25;67.55;;;28.10;;
29044;SDS011;16133;49.486;12.176;2023-03-03T04:59:50;62.90;;;28.30;;
29044;SDS011;16133;49.486;12.176;2023-03-03T05:02:16;62.33;;;24.30;;
29044;SDS011;16133;49.486;12.176;2023-03-03T05:04:41;56.58;;;24.00;;
29044;SDS011;16133;49.486;12.176;2023-03-03T05:07:07;58.92;;;24.17;;
29044;SDS011;16133;49.486;12.176;2023-03-03T05:09:32;55.38;;;21.83;;
29044;SDS011;16133;49.486;12.176;2023-03-03T05:11:58;86.03;;;30.48;;
29044;SDS011;16133;49.486;12.176;2023-03-03T05:14:24;69.90;;;26.75;;
29044;SDS011;16133;49.486;12.176;2023-03-03T05:16:50;77.80;;;28.17;;
29044;SDS011;16133;49.486;12.176;2023-03-03T05:19:15;70.88;;;28.42;;
29044;SDS011;16133;49.486;12.176;2023-03-03T05:21:41;61.75;;;26.63;;
29044;SDS011;16133;49.486;12.176;2023-03-03T05:24:07;56.08;;;24.67;;
29044;SDS011;16133;49.486;12.176;2023-03-03T05:26:35;60.63;;;23.98;;
29044;SDS011;16133;49.486;12.176;2023-03-03T05:29:01;62.20;;;24.25;;
29044;SDS011;16133;49.486;12.176;2023-03-03T05:31:27;57.22;;;25.60;;
29044;SDS011;16133;49.486;12.176;2023-03-03T05:33:53;61.60;;;24.58;;
29044;SDS011;16133;49.486;12.176;2023-03-03T05:36:18;52.97;;;21.60;;
29044;SDS011;16133;49.486;12.176;2023-03-03T05:38:44;63.65;;;24.20;;
29044;SDS011;16133;49.486;12.176;2023-03-03T05:41:09;53.75;;;22.00;;
29044;SDS011;16133;49.486;12.176;2023-03-03T05:43:35;57.38;;;25.05;;
29044;SDS011;16133;49.486;12.176;2023-03-03T05:46:00;62.70;;;25.08;;
29044;SDS011;16133;49.486;12.176;2023-03-03T05:48:26;57.75;;;23.92;;
29044;SDS011;16133;49.486;12.176;2023-03-03T05:50:51;51.67;;;21.70;;
29044;SDS011;16133;49.486;12.176;2023-03-03T05:53:17;58.92;;;25.40;;
29044;SDS011;16133;49.486;12.176;2023-03-03T05:55:42;53.15;;;22.50;;
29044;SDS011;16133;49.486;12.176;2023-03-03T05:58:08;57.28;;;23.63;;
29044;SDS011;16133;49.486;12.176;2023-03-03T06:00:33;57.97;;;24.45;;
29044;SDS011;16133;49.486;12.176;2023-03-03T06:02:59;56.33;;;22.50;;
29044;SDS011;16133;49.486;12.176;2023-03-03T06:05:25;61.20;;;22.77;;
29044;SDS011;16133;49.486;12.176;2023-03-03T06:07:50;59.25;;;22.98;;
29044;SDS011;16133;49.486;12.176;2023-03-03T06:10:16;59.70;;;23.05;;
29044;SDS011;16133;49.486;12.176;2023-03-03T06:12:41;56.92;;;21.55;;
29044;SDS011;16133;49.486;12.176;2023-03-03T06:15:07;59.70;;;22.08;;
29044;SDS011;16133;49.486;12.176;2023-03-03T06:17:34;53.20;;;21.50;;
29044;SDS011;16133;49.486;12.176;2023-03-03T06:20:00;58.03;;;22.30;;
29044;SDS011;16133;49.486;12.176;2023-03-03T06:22:25;54.38;;;20.80;;
29044;SDS011;16133;49.486;12.176;2023-03-03T06:24:50;53.47;;;20.85;;
29044;SDS011;16133;49.486;12.176;2023-03-03T06:27:16;57.30;;;23.08;;
29044;SDS011;16133;49.486;12.176;2023-03-03T06:29:42;53.10;;;21.45;;
29044;SDS011;16133;49.486;12.176;2023-03-03T06:32:07;56.85;;;22.23;;
29044;SDS011;16133;49.486;12.176;2023-03-03T06:34:33;57.58;;;22.25;;
29044;SDS011;16133;49.486;12.176;2023-03-03T06:36:58;53.63;;;20.10;;
29044;SDS011;16133;49.486;12.176;2023-03-03T06:39:24;49.75;;;19.42;;
29044;SDS011;16133;49.486;12.176;2023-03-03T06:41:49;60.22;;;22.27;;
29044;SDS011;16133;49.486;12.176;2023-03-03T06:44:15;50.15;;;21.58;;
29044;SDS011;16133;49.486;12.176;2023-03-03T06:46:41;54.78;;;21.02;;
29044;SDS011;16133;49.486;12.176;2023-03-03T06:49:06;56.17;;;22.05;;
29044;SDS011;16133;49.486;12.176;2023-03-03T06:51:32;56.70;;;22.85;;
29044;SDS011;16133;49.486;12.176;2023-03-03T06:54:10;54.90;;;21.67;;
29044;SDS011;16133;49.486;12.176;2023-03-03T06:56:40;54.25;;;23.60;;
29044;SDS011;16133;49.486;12.176;2023-03-03T06:59:19;54.63;;;21.92;;
29044;SDS011;16133;49.486;12.176;2023-03-03T07:04:29;52.83;;;21.02;;
29044;SDS011;16133;49.486;12.176;2023-03-03T07:06:57;55.97;;;21.77;;
29044;SDS011;16133;49.486;12.176;2023-03-03T07:09:31;51.95;;;20.25;;
29044;SDS011;16133;49.486;12.176;2023-03-03T07:12:00;54.78;;;21.15;;
29044;SDS011;16133;49.486;12.176;2023-03-03T07:14:30;47.80;;;20.13;;
29044;SDS011;16133;49.486;12.176;2023-03-03T07:16:59;49.58;;;20.70;;
29044;SDS011;16133;49.486;12.176;2023-03-03T07:19:32;49.17;;;21.10;;
29044;SDS011;16133;49.486;12.176;2023-03-03T07:22:21;49.33;;;19.52;;
29044;SDS011;16133;49.486;12.176;2023-03-03T07:24:50;58.45;;;20.08;;
29044;SDS011;16133;49.486;12.176;2023-03-03T07:27:27;50.83;;;19.88;;
29044;SDS011;16133;49.486;12.176;2023-03-03T07:29:54;52.20;;;22.25;;
29044;SDS011;16133;49.486;12.176;2023-03-03T07:32:43;47.28;;;19.95;;
29044;SDS011;16133;49.486;12.176;2023-03-03T07:35:29;53.78;;;21.50;;
29044;SDS011;16133;49.486;12.176;2023-03-03T07:37:59;52.17;;;21.75;;
29044;SDS011;16133;49.486;12.176;2023-03-03T07:40:30;48.30;;;21.30;;
29044;SDS011;16133;49.486;12.176;2023-03-03T07:43:01;59.53;;;23.65;;
29044;SDS011;16133;49.486;12.176;2023-03-03T07:45:44;57.47;;;22.13;;
29044;SDS011;16133;49.486;12.176;2023-03-03T07:50:38;58.53;;;21.70;;
29044;SDS011;16133;49.486;12.176;2023-03-03T07:53:07;56.05;;;20.40;;
29044;SDS011;16133;49.486;12.176;2023-03-03T07:55:39;60.67;;;22.13;;
29044;SDS011;16133;49.486;12.176;2023-03-03T08:03:04;52.97;;;20.88;;
29044;SDS011;16133;49.486;12.176;2023-03-03T08:05:43;49.65;;;20.80;;
29044;SDS011;16133;49.486;12.176;2023-03-03T08:08:28;52.92;;;20.25;;
29044;SDS011;16133;49.486;12.176;2023-03-03T08:10:58;50.20;;;19.42;;
29044;SDS011;16133;49.486;12.176;2023-03-03T08:16:00;58.97;;;19.80;;
29044;SDS011;16133;49.486;12.176;2023-03-03T08:18:43;53.17;;;20.45;;
29044;SDS011;16133;49.486;12.176;2023-03-03T08:21:13;48.90;;;19.30;;
29044;SDS011;16133;49.486;12.176;2023-03-03T08:23:44;44.53;;;19.23;;
29044;SDS011;16133;49.486;12.176;2023-03-03T08:26:09;46.90;;;19.10;;
29044;SDS011;16133;49.486;12.176;2023-03-03T08:28:37;46.22;;;19.25;;
29044;SDS011;16133;49.486;12.176;2023-03-03T08:31:03;53.53;;;19.85;;
29044;SDS011;16133;49.486;12.176;2023-03-03T08:33:28;50.40;;;19.63;;
29044;SDS011;16133;49.486;12.176;2023-03-03T08:35:54;44.45;;;19.45;;
29044;SDS011;16133;49.486;12.176;2023-03-03T08:38:20;51.15;;;19.63;;
29044;SDS011;16133;49.486;12.176;2023-03-03T08:40:46;44.15;;;17.42;;
29044;SDS011;16133;49.486;12.176;2023-03-03T08:43:12;41.40;;;18.20;;
29044;SDS011;16133;49.486;12.176;2023-03-03T08:45:41;52.42;;;19.15;;
29044;SDS011;16133;49.486;12.176;2023-03-03T08:48:09;46.50;;;18.63;;
29044;SDS011;16133;49.486;12.176;2023-03-03T08:50:35;47.28;;;17.95;;
29044;SDS011;16133;49.486;12.176;2023-03-03T08:53:02;43.47;;;17.10;;
29044;SDS011;16133;49.486;12.176;2023-03-03T08:55:28;48.00;;;18.02;;
29044;SDS011;16133;49.486;12.176;2023-03-03T08:57:53;43.72;;;17.60;;
29044;SDS011;16133;49.486;12.176;2023-03-03T09:00:19;47.72;;;17.50;;
29044;SDS011;16133;49.486;12.176;2023-03-03T09:02:45;45.05;;;18.30;;
29044;SDS011;16133;49.486;12.176;2023-03-03T09:05:11;43.45;;;17.48;;
29044;SDS011;16133;49.486;12.176;2023-03-03T09:07:37;44.70;;;18.20;;
29044;SDS011;16133;49.486;12.176;2023-03-03T09:10:03;43.08;;;18.65;;
29044;SDS011;16133;49.486;12.176;2023-03-03T09:12:30;39.28;;;17.77;;
29044;SDS011;16133;49.486;12.176;2023-03-03T09:14:59;44.55;;;17.35;;
29044;SDS011;16133;49.486;12.176;2023-03-03T09:17:36;40.75;;;17.08;;
29044;SDS011;16133;49.486;12.176;2023-03-03T09:25:52;44.58;;;18.10;;
29044;SDS011;16133;49.486;12.176;2023-03-03T09:28:28;47.00;;;18.23;;
29044;SDS011;16133;49.486;12.176;2023-03-03T09:30:57;40.80;;;16.30;;
29044;SDS011;16133;49.486;12.176;2023-03-03T09:33:40;36.13;;;15.30;;
29044;SDS011;16133;49.486;12.176;2023-03-03T09:38:54;42.20;;;17.15;;
29044;SDS011;16133;49.486;12.176;2023-03-03T09:49:41;44.45;;;17.27;;
29044;SDS011;16133;49.486;12.176;2023-03-03T10:00:33;33.05;;;14.88;;
29044;SDS011;16133;49.486;12.176;2023-03-03T10:12:04;45.40;;;17.33;;
29044;SDS011;16133;49.486;12.176;2023-03-03T10:17:52;35.30;;;14.70;;
29044;SDS011;16133;49.486;12.176;2023-03-03T10:31:19;35.85;;;15.95;;
29044;SDS011;16133;49.486;12.176;2023-03-03T10:34:44;35.75;;;14.45;;
29044;SDS011;16133;49.486;12.176;2023-03-03T10:58:46;38.40;;;16.60;;
29044;SDS011;16133;49.486;12.176;2023-03-03T11:21:00;34.80;;;15.82;;
29044;SDS011;16133;49.486;12.176;2023-03-03T11:23:41;34.03;;;15.38;;
29044;SDS011;16133;49.486;12.176;2023-03-03T11:26:54;39.47;;;16.90;;
29044;SDS011;16133;49.486;12.176;2023-03-03T11:40:41;35.03;;;15.25;;
29044;SDS011;16133;49.486;12.176;2023-03-03T11:43:16;41.30;;;17.20;;
29044;SDS011;16133;49.486;12.176;2023-03-03T11:45:47;38.65;;;15.98;;
29044;SDS011;16133;49.486;12.176;2023-03-03T11:51:04;36.90;;;16.35;;
29044;SDS011;16133;49.486;12.176;2023-03-03T11:53:39;35.65;;;15.20;;
29044;SDS011;16133;49.486;12.176;2023-03-03T12:04:26;37.15;;;15.13;;
29044;SDS011;16133;49.486;12.176;2023-03-03T12:07:16;34.78;;;14.90;;
29044;SDS011;16133;49.486;12.176;2023-03-03T12:25:32;36.58;;;14.93;;
29044;SDS011;16133;49.486;12.176;2023-03-03T12:47:16;33.42;;;14.45;;
29044;SDS011;16133;49.486;12.176;2023-03-03T13:03:24;40.53;;;16.50;;
29044;SDS011;16133;49.486;12.176;2023-03-03T13:08:48;33.15;;;14.15;;
29044;SDS011;16133;49.486;12.176;2023-03-03T13:14:45;31.92;;;13.73;;
29044;SDS011;16133;49.486;12.176;2023-03-03T13:19:51;27.75;;;13.00;;
29044;SDS011;16133;49.486;12.176;2023-03-03T13:22:37;35.42;;;14.07;;
29044;SDS011;16133;49.486;12.176;2023-03-03T13:30:23;32.58;;;13.45;;
29044;SDS011;16133;49.486;12.176;2023-03-03T13:33:07;33.40;;;14.05;;
29044;SDS011;16133;49.486;12.176;2023-03-03T13:41:24;24.85;;;12.18;;
29044;SDS011;16133;49.486;12.176;2023-03-03T13:46:39;29.52;;;12.13;;
29044;SDS011;16133;49.486;12.176;2023-03-03T13:51:49;26.42;;;11.40;;
29044;SDS011;16133;49.486;12.176;2023-03-03T13:54:50;26.52;;;12.48;;
29044;SDS011;16133;49.486;12.176;2023-03-03T14:00:18;34.85;;;11.55;;
29044;SDS011;16133;49.486;12.176;2023-03-03T14:11:06;22.27;;;8.48;;
29044;SDS011;16133;49.486;12.176;2023-03-03T14:16:34;24.25;;;10.15;;
29044;SDS011;16133;49.486;12.176;2023-03-03T14:24:30;21.73;;;9.70;;
29044;SDS011;16133;49.486;12.176;2023-03-03T14:26:56;23.98;;;10.15;;
29044;SDS011;16133;49.486;12.176;2023-03-03T14:32:01;24.25;;;10.27;;
29044;SDS011;16133;49.486;12.176;2023-03-03T14:34:45;21.48;;;9.38;;
29044;SDS011;16133;49.486;12.176;2023-03-03T14:37:29;21.92;;;8.95;;
29044;SDS011;16133;49.486;12.176;2023-03-03T14:42:37;13.23;;;6.32;;
29044;SDS011;16133;49.486;12.176;2023-03-03T14:48:44;23.70;;;7.40;;
29044;SDS011;16133;49.486;12.176;2023-03-03T14:50:58;18.05;;;7.63;;
29044;SDS011;16133;49.486;12.176;2023-03-03T14:53:42;15.23;;;6.70;;
29044;SDS011;16133;49.486;12.176;2023-03-03T14:58:50;19.85;;;8.52;;
29044;SDS011;16133;49.486;12.176;2023-03-03T15:01:30;20.25;;;9.20;;
29044;SDS011;16133;49.486;12.176;2023-03-03T15:04:06;20.92;;;8.98;;
29044;SDS011;16133;49.486;12.176;2023-03-03T15:06:56;20.63;;;8.95;;
29044;SDS011;16133;49.486;12.176;2023-03-03T15:09:33;24.15;;;9.82;;
29044;SDS011;16133;49.486;12.176;2023-03-03T15:17:39;20.52;;;8.27;;
29044;SDS011;16133;49.486;12.176;2023-03-03T15:23:21;17.17;;;7.28;;
29044;SDS011;16133;49.486;12.176;2023-03-03T15:25:35;14.93;;;7.25;;
29044;SDS011;16133;49.486;12.176;2023-03-03T15:31:26;16.88;;;7.30;;
29044;SDS011;16133;49.486;12.176;2023-03-03T15:34:05;16.80;;;6.97;;
29044;SDS011;16133;49.486;12.176;2023-03-03T15:41:44;15.10;;;6.43;;
29044;SDS011;16133;49.486;12.176;2023-03-03T16:03:35;20.23;;;7.72;;
29044;SDS011;16133;49.486;12.176;2023-03-03T16:06:11;15.40;;;6.70;;
29044;SDS011;16133;49.486;12.176;2023-03-03T16:11:41;17.75;;;7.05;;
29044;SDS011;16133;49.486;12.176;2023-03-03T16:27:36;18.92;;;8.65;;
29044;SDS011;16133;49.486;12.176;2023-03-03T16:39:00;20.67;;;9.38;;
29044;SDS011;16133;49.486;12.176;2023-03-03T16:46:47;25.80;;;11.45;;
29044;SDS011;16133;49.486;12.176;2023-03-03T17:05:20;28.08;;;12.20;;
29044;SDS011;16133;49.486;12.176;2023-03-03T17:10:41;23.33;;;11.55;;
29044;SDS011;16133;49.486;12.176;2023-03-03T17:16:15;26.73;;;11.60;;
29044;SDS011;16133;49.486;12.176;2023-03-03T17:27:14;56.22;;;22.17;;
29044;SDS011;16133;49.486;12.176;2023-03-03T17:30:43;37.92;;;16.52;;
29044;SDS011;16133;49.486;12.176;2023-03-03T17:35:53;31.75;;;12.23;;
29044;SDS011;16133;49.486;12.176;2023-03-03T17:46:54;21.23;;;9.98;;
29044;SDS011;16133;49.486;12.176;2023-03-03T18:05:36;27.83;;;10.02;;
29044;SDS011;16133;49.486;12.176;2023-03-03T18:08:10;24.70;;;9.95;;
29044;SDS011;16133;49.486;12.176;2023-03-03T18:32:40;29.50;;;11.23;;
29044;SDS011;16133;49.486;12.176;2023-03-03T18:37:50;41.97;;;16.80;;
29044;SDS011;16133;49.486;12.176;2023-03-03T18:40:34;30.92;;;13.68;;
29044;SDS011;16133;49.486;12.176;2023-03-03T18:56:43;27.60;;;10.57;;
29044;SDS011;16133;49.486;12.176;2023-03-03T18:59:09;27.67;;;11.20;;
29044;SDS011;16133;49.486;12.176;2023-03-03T19:01:39;29.98;;;10.90;;
29044;SDS011;16133;49.486;12.176;2023-03-03T19:09:08;29.27;;;11.15;;
29044;SDS011;16133;49.486;12.176;2023-03-03T19:16:52;45.13;;;18.00;;
29044;SDS011;16133;49.486;12.176;2023-03-03T19:19:19;35.63;;;14.13;;
29044;SDS011;16133;49.486;12.176;2023-03-03T19:21:50;39.42;;;13.90;;
29044;SDS011;16133;49.486;12.176;2023-03-03T19:24:36;34.08;;;12.20;;
29044;SDS011;16133;49.486;12.176;2023-03-03T19:27:18;34.90;;;12.45;;
29044;SDS011;16133;49.486;12.176;2023-03-03T19:29:56;33.10;;;12.95;;
29044;SDS011;16133;49.486;12.176;2023-03-03T19:35:47;31.42;;;13.25;;
29044;SDS011;16133;49.486;12.176;2023-03-03T19:38:39;32.30;;;13.48;;
29044;SDS011;16133;49.486;12.176;2023-03-03T19:41:18;41.60;;;13.93;;
29044;SDS011;16133;49.486;12.176;2023-03-03T19:54:34;44.28;;;13.63;;
29044;SDS011;16133;49.486;12.176;2023-03-03T20:32:10;39.47;;;14.02;;
29044;SDS011;16133;49.486;12.176;2023-03-03T20:37:33;38.95;;;15.13;;
29044;SDS011;16133;49.486;12.176;2023-03-03T20:50:44;40.92;;;15.02;;
29044;SDS011;16133;49.486;12.176;2023-03-03T21:02:39;42.22;;;15.88;;
29044;SDS011;16133;49.486;12.176;2023-03-03T21:04:44;49.25;;;15.73;;
29044;SDS011;16133;49.486;12.176;2023-03-03T21:07:21;43.53;;;14.55;;
29044;SDS011;16133;49.486;12.176;2023-03-03T21:09:48;49.75;;;17.25;;
29044;SDS011;16133;49.486;12.176;2023-03-03T21:12:27;45.42;;;15.90;;
29044;SDS011;16133;49.486;12.176;2023-03-03T21:15:06;43.13;;;15.50;;
29044;SDS011;16133;49.486;12.176;2023-03-03T21:17:45;51.17;;;17.40;;
29044;SDS011;16133;49.486;12.176;2023-03-03T21:20:32;48.63;;;14.75;;
29044;SDS011;16133;49.486;12.176;2023-03-03T21:22:58;41.92;;;15.45;;
29044;SDS011;16133;49.486;12.176;2023-03-03T21:28:18;51.75;;;20.10;;
29044;SDS011;16133;49.486;12.176;2023-03-03T21:34:16;50.70;;;18.02;;
29044;SDS011;16133;49.486;12.176;2023-03-03T21:38:56;51.22;;;17.50;;
29044;SDS011;16133;49.486;12.176;2023-03-03T21:41:22;53.75;;;19.05;;
29044;SDS011;16133;49.486;12.176;2023-03-03T21:43:49;71.85;;;21.52;;
29044;SDS011;16133;49.486;12.176;2023-03-03T21:46:17;61.70;;;19.95;;
29044;SDS011;16133;49.486;12.176;2023-03-03T21:48:43;82.35;;;25.17;;
29044;SDS011;16133;49.486;12.176;2023-03-03T21:51:09;61.45;;;21.40;;
29044;SDS011;16133;49.486;12.176;2023-03-03T21:53:37;56.75;;;20.63;;
29044;SDS011;16133;49.486;12.176;2023-03-03T21:56:03;62.15;;;21.13;;
29044;SDS011;16133;49.486;12.176;2023-03-03T21:58:29;61.38;;;19.33;;
29044;SDS011;16133;49.486;12.176;2023-03-03T22:00:54;53.10;;;18.40;;
29044;SDS011;16133;49.486;12.176;2023-03-03T22:03:20;59.65;;;20.80;;
29044;SDS011;16133;49.486;12.176;2023-03-03T22:05:45;67.00;;;21.90;;
29044;SDS011;16133;49.486;12.176;2023-03-03T22:08:13;61.95;;;20.70;;
29044;SDS011;16133;49.486;12.176;2023-03-03T22:10:42;53.72;;;19.15;;
29044;SDS011;16133;49.486;12.176;2023-03-03T22:13:09;55.22;;;19.30;;
29044;SDS011;16133;49.486;12.176;2023-03-03T22:15:35;56.63;;;18.23;;
29044;SDS011;16133;49.486;12.176;2023-03-03T22:18:00;59.65;;;18.67;;
29044;SDS011;16133;49.486;12.176;2023-03-03T22:20:25;63.17;;;19.55;;
29044;SDS011;16133;49.486;12.176;2023-03-03T22:22:51;55.40;;;19.23;;
29044;SDS011;16133;49.486;12.176;2023-03-03T22:25:16;57.92;;;19.17;;
29044;SDS011;16133;49.486;12.176;2023-03-03T22:27:42;65.25;;;20.25;;
29044;SDS011;16133;49.486;12.176;2023-03-03T22:30:07;55.53;;;19.50;;
29044;SDS011;16133;49.486;12.176;2023-03-03T22:32:33;66.28;;;21.77;;
29044;SDS011;16133;49.486;12.176;2023-03-03T22:34:58;59.33;;;19.55;;
29044;SDS011;16133;49.486;12.176;2023-03-03T22:37:24;57.78;;;19.58;;
29044;SDS011;16133;49.486;12.176;2023-03-03T22:39:49;51.75;;;17.35;;
29044;SDS011;16133;49.486;12.176;2023-03-03T22:42:14;61.35;;;20.35;;
29044;SDS011;16133;49.486;12.176;2023-03-03T22:44:40;58.78;;;19.42;;
29044;SDS011;16133;49.486;12.176;2023-03-03T22:47:05;60.60;;;20.15;;
29044;SDS011;16133;49.486;12.176;2023-03-03T22:49:30;54.25;;;19.15;;
29044;SDS011;16133;49.486;12.176;2023-03-03T22:51:55;57.78;;;18.13;;